createdAt,value
2022-10-03T00:04:38.917Z,100375.53
2022-10-03T00:10:33.155Z,100371.79
2022-10-03T00:16:14.527Z,100375.20
2022-10-03T00:27:35.913Z,100379.73
2022-10-03T00:33:21.067Z,100374.97
2022-10-03T00:39:09.424Z,100375.45
2022-10-03T00:45:27.542Z,100366.97
2022-10-03T00:51:21.753Z,100367.83
2022-10-03T00:57:07.135Z,100360.39
2022-10-03T01:02:55.891Z,100360.27
2022-10-03T01:08:55.258Z,100364.33
2022-10-03T01:14:34.546Z,100371.16
2022-10-03T01:20:29.968Z,100362.66
2022-10-03T01:26:12.374Z,100357.78
2022-10-03T01:31:42.631Z,100361.84
2022-10-03T01:37:11.963Z,100357.20
2022-10-03T01:43:12.449Z,100362.44
2022-10-03T01:48:45.254Z,100362.23
2022-10-03T01:54:55.557Z,100367.35
2022-10-03T02:00:30.981Z,100361.73
2022-10-03T02:06:24.405Z,100364.94
2022-10-03T02:12:15.804Z,100370.78
2022-10-03T02:18:04.295Z,100360.83
2022-10-03T02:23:47.240Z,100364.10
2022-10-03T02:29:44.208Z,100367.40
2022-10-03T02:35:37.021Z,100385.95
2022-10-03T02:41:52.422Z,100379.11
2022-10-03T02:47:40.291Z,100380.47
2022-10-03T02:53:27.330Z,100397.17
2022-10-03T02:59:03.235Z,100385.97
2022-10-03T03:05:18.783Z,100375.71
2022-10-03T03:10:51.575Z,100386.23
2022-10-03T03:16:53.289Z,100371.10
2022-10-03T03:22:36.788Z,100385.25
2022-10-03T03:28:16.630Z,100375.36
2022-10-03T03:34:03.414Z,100370.47
2022-10-03T03:39:47.135Z,100380.13
2022-10-03T03:45:46.239Z,100388.66
2022-10-03T03:51:19.308Z,100385.63
2022-10-03T03:57:24.130Z,100390.61
2022-10-03T04:03:06.338Z,100392.82
2022-10-03T04:08:59.483Z,100387.32
2022-10-03T04:14:55.472Z,100398.92
2022-10-03T04:20:46.659Z,100390.73
2022-10-03T04:26:15.879Z,100385.14
2022-10-03T04:31:59.780Z,100379.77
2022-10-03T04:37:48.500Z,100392.21
2022-10-03T04:43:44.034Z,100385.73
2022-10-03T04:49:20.035Z,100394.05
2022-10-03T04:55:11.864Z,100395.23
2022-10-03T05:00:57.141Z,100394.99
2022-10-03T05:06:41.479Z,100397.68
2022-10-03T05:12:21.254Z,100390.25
2022-10-03T05:18:06.636Z,100399.29
2022-10-03T05:23:53.671Z,100404.41
2022-10-03T05:29:43.036Z,100426.63
2022-10-03T05:35:45.857Z,100442.98
2022-10-03T05:41:32.733Z,100455.91
2022-10-03T05:47:40.444Z,100463.63
2022-10-03T05:53:42.262Z,100465.83
2022-10-03T05:59:31.075Z,100476.70
2022-10-03T06:05:39.023Z,100469.73
2022-10-03T06:11:29.330Z,100480.27
2022-10-03T06:17:14.304Z,100495.00
2022-10-03T06:22:50.542Z,100508.43
2022-10-03T06:28:47.497Z,100503.84
2022-10-03T06:34:26.037Z,100503.70
2022-10-03T06:40:25.256Z,100523.00
2022-10-03T06:46:08.036Z,100507.89
2022-10-03T06:51:54.947Z,100528.97
2022-10-03T06:57:49.629Z,100528.34
2022-10-03T07:03:25.217Z,100528.21
2022-10-03T07:09:44.448Z,100544.43
2022-10-03T07:16:25.376Z,100563.14
2022-10-03T07:21:47.672Z,100561.97
2022-10-03T07:27:50.153Z,100561.70
2022-10-03T07:33:36.716Z,100571.63
2022-10-03T07:39:35.092Z,100574.36
2022-10-03T07:45:45.510Z,100588.17
2022-10-03T07:51:15.454Z,100593.70
2022-10-03T07:57:01.000Z,100597.86
2022-10-03T08:02:52.241Z,100598.16
2022-10-03T08:08:49.807Z,100643.67
2022-10-03T08:14:40.345Z,100635.64
2022-10-03T08:20:40.353Z,100642.41
2022-10-03T08:26:35.324Z,100649.64
2022-10-03T08:32:33.815Z,100651.11
2022-10-03T08:38:32.185Z,100671.61
2022-10-03T08:44:08.639Z,100663.73
2022-10-03T08:50:10.584Z,100681.72
2022-10-03T08:55:47.163Z,100677.44
2022-10-03T09:01:29.890Z,100676.70
2022-10-03T09:07:22.936Z,100682.70
2022-10-03T09:13:16.354Z,100688.42
2022-10-03T09:18:46.268Z,100703.43
2022-10-03T09:24:37.635Z,100730.05
2022-10-03T09:30:37.492Z,100711.78
2022-10-03T09:36:38.433Z,100708.52
2022-10-03T09:42:09.109Z,100710.63
2022-10-03T09:48:09.713Z,100719.05
2022-10-03T09:54:11.627Z,100726.38
2022-10-03T10:00:02.036Z,100742.53
2022-10-03T10:05:48.033Z,100769.53
2022-10-03T10:11:38.433Z,100763.06
2022-10-03T10:17:30.412Z,100752.10
2022-10-03T10:23:38.350Z,100745.11
2022-10-03T10:29:30.146Z,100760.00
2022-10-03T10:35:29.483Z,100754.73
2022-10-03T10:41:38.777Z,100759.59
2022-10-03T10:47:29.149Z,100769.73
2022-10-03T10:53:16.435Z,100781.04
2022-10-03T10:59:14.589Z,100771.09
2022-10-03T11:04:50.930Z,100762.95
2022-10-03T11:10:26.515Z,100765.21
2022-10-03T11:16:07.198Z,100765.05
2022-10-03T11:22:09.447Z,100780.82
2022-10-03T11:28:18.970Z,100786.69
2022-10-03T11:34:21.455Z,100759.78
2022-10-03T11:40:00.057Z,100782.95
2022-10-03T11:45:38.951Z,100792.80
2022-10-03T11:51:11.954Z,100779.73
2022-10-03T11:56:50.660Z,100779.70
2022-10-03T12:02:45.225Z,100773.78
2022-10-03T12:08:58.254Z,100783.14
2022-10-03T12:14:45.943Z,100789.47
2022-10-03T12:26:14.692Z,100849.16
2022-10-03T12:31:47.196Z,100812.78
2022-10-03T12:37:28.715Z,100847.22
2022-10-03T12:43:11.006Z,100837.14
2022-10-03T12:49:28.174Z,100841.11
2022-10-03T12:55:03.550Z,100854.59
2022-10-03T13:00:32.759Z,100859.25
2022-10-03T13:06:14.909Z,100856.09
2022-10-03T13:12:08.030Z,100894.89
2022-10-03T13:17:40.627Z,100873.16
2022-10-03T13:23:30.723Z,100867.00
2022-10-03T13:29:23.444Z,100858.75
2022-10-03T13:35:25.923Z,100871.55
2022-10-03T13:40:53.224Z,100877.98
2022-10-03T13:46:21.561Z,100874.45
2022-10-03T13:51:53.383Z,100873.38
2022-10-03T13:57:23.271Z,100882.03
2022-10-03T14:03:14.665Z,100876.88
2022-10-03T14:08:47.226Z,100869.89
2022-10-03T14:14:41.990Z,100893.10
2022-10-03T14:20:37.501Z,100896.64
2022-10-03T14:26:10.174Z,100893.45
2022-10-03T14:31:57.423Z,100892.61
2022-10-03T14:37:48.744Z,100892.34
2022-10-03T14:43:49.047Z,100889.13
2022-10-03T14:49:32.911Z,100905.92
2022-10-03T14:54:48.643Z,100909.23
2022-10-03T15:00:13.736Z,100899.00
2022-10-03T15:05:49.355Z,100893.15
2022-10-03T15:11:37.534Z,100894.72
2022-10-03T15:17:03.775Z,100886.12
2022-10-03T15:22:47.854Z,100896.10
2022-10-03T15:28:29.919Z,100904.66
2022-10-03T15:33:55.141Z,100905.14
2022-10-03T15:39:37.249Z,100910.87
2022-10-03T15:45:05.275Z,100904.24
2022-10-03T15:50:45.652Z,100912.63
2022-10-03T15:56:19.793Z,100910.96
2022-10-03T16:01:50.469Z,100910.21
2022-10-03T16:07:51.717Z,100914.16
2022-10-03T16:13:30.007Z,100919.66
2022-10-03T16:19:36.857Z,100913.17
2022-10-03T16:25:16.362Z,100929.00
2022-10-03T16:30:52.605Z,100924.66
2022-10-03T16:36:19.629Z,100931.41
2022-10-03T16:41:49.912Z,100936.28
2022-10-03T16:47:15.755Z,100939.48
2022-10-03T16:53:00.511Z,100945.00
2022-10-03T16:58:27.594Z,100952.43
2022-10-03T17:04:08.737Z,100941.91
2022-10-03T17:09:53.850Z,100941.77
2022-10-03T17:15:23.856Z,100948.84
2022-10-03T17:21:00.316Z,100939.27
2022-10-03T17:26:32.662Z,100933.13
2022-10-03T17:32:07.796Z,100926.86
2022-10-03T17:37:38.932Z,100935.50
2022-10-03T17:43:14.697Z,100927.89
2022-10-03T17:48:41.737Z,100930.45
2022-10-03T17:54:08.636Z,100933.10
2022-10-03T17:59:42.501Z,100920.17
2022-10-03T18:05:19.052Z,100924.70
2022-10-03T18:10:50.007Z,100932.23
2022-10-03T18:16:29.267Z,100925.73
2022-10-03T18:22:04.698Z,100930.17
2022-10-03T18:27:53.838Z,100921.56
2022-10-03T18:33:23.367Z,100931.66
2022-10-03T18:38:51.886Z,100920.52
2022-10-03T18:44:17.014Z,100914.83
2022-10-03T18:49:44.932Z,100915.14
2022-10-03T18:55:18.444Z,100924.90
2022-10-03T19:00:55.185Z,100922.33
2022-10-03T19:06:22.285Z,100913.20
2022-10-03T19:12:00.825Z,100922.52
2022-10-03T19:18:21.398Z,100917.48
2022-10-03T19:23:47.676Z,100913.61
2022-10-03T19:29:15.129Z,100912.45
2022-10-03T19:34:57.728Z,100909.33
2022-10-03T19:40:40.325Z,100909.55
2022-10-03T19:46:13.382Z,100906.22
2022-10-03T19:51:38.836Z,100907.52
2022-10-03T19:57:01.558Z,100904.81
2022-10-03T20:02:31.768Z,100906.64
2022-10-03T20:08:07.912Z,100907.31
2022-10-03T20:13:30.507Z,100903.19
2022-10-03T20:18:55.362Z,100908.77
2022-10-03T20:24:37.523Z,100913.42
2022-10-03T20:30:40.352Z,100914.50
2022-10-03T20:36:34.265Z,100908.56
2022-10-03T20:42:15.778Z,100904.25
2022-10-03T20:48:07.207Z,100909.55
2022-10-03T20:53:38.799Z,100903.19
2022-10-03T20:59:04.214Z,100907.52
2022-10-03T21:04:41.089Z,100913.85
2022-10-03T21:10:22.816Z,100902.22
2022-10-03T21:15:56.697Z,100909.97
2022-10-03T21:21:37.397Z,100901.80
2022-10-03T21:27:21.323Z,100904.25
2022-10-03T21:33:07.512Z,100904.71
2022-10-03T21:38:42.774Z,100902.56
2022-10-03T21:44:24.815Z,100894.86
2022-10-03T21:50:15.015Z,100895.39
2022-10-03T21:55:52.225Z,100889.36
2022-10-03T22:01:40.805Z,100884.22
2022-10-03T22:07:35.418Z,100894.21
2022-10-03T22:13:14.938Z,100870.38
2022-10-03T22:18:42.205Z,100870.16
2022-10-03T22:24:09.259Z,100877.80
2022-10-03T22:30:04.725Z,100882.60
2022-10-03T22:35:37.714Z,100878.64
2022-10-03T22:41:00.965Z,100875.33
2022-10-03T22:46:28.009Z,100873.61
2022-10-03T22:51:51.913Z,100873.50
2022-10-03T22:57:17.956Z,100866.63
2022-10-03T23:02:51.049Z,100858.23
2022-10-03T23:08:30.079Z,100864.45
2022-10-03T23:14:01.851Z,100861.03
2022-10-03T23:25:26.811Z,100859.38
2022-10-03T23:30:58.354Z,100871.44
2022-10-03T23:36:28.115Z,100872.48
2022-10-03T23:42:03.128Z,100912.42
2022-10-03T23:47:29.459Z,100908.30
2022-10-03T23:53:06.945Z,100893.63
2022-10-03T23:58:44.511Z,100887.11
